Terminal Aerodrome Forecast
Issued by NWS

Home | Current Version | Previous Version | Text Only | Print | Product List | Glossary On
Versions: 1 2 3 4 5 6 7 8 9 10 11 12 13 14 15
918
FTUS42 KTAE 270521
TAFDHN
TAF
KDHN 270521Z 2706/2806 31005KT P6SM FEW025
     FM271000 30006KT P6SM BKN025
     FM271300 31010KT P6SM BKN040
     FM280000 31004KT P6SM SKC=

USA.gov is the U.S. government's official web portal to all federal, state and local government web resources and services.